sensor_id;sensor_type;location;lat;lon;timestamp;temperature;humidity
18335;DHT22;9293;49.524;10.964;2024-01-16T00:00:31;-0.10;99.90
18335;DHT22;9293;49.524;10.964;2024-01-16T00:03:00;-0.20;99.90
18335;DHT22;9293;49.524;10.964;2024-01-16T00:05:28;-0.20;99.90
18335;DHT22;9293;49.524;10.964;2024-01-16T00:07:56;-0.10;99.90
18335;DHT22;9293;49.524;10.964;2024-01-16T00:10:31;-0.20;99.90
18335;DHT22;9293;49.524;10.964;2024-01-16T00:13:01;-0.20;99.90
18335;DHT22;9293;49.524;10.964;2024-01-16T00:15:30;-0.20;99.90
18335;DHT22;9293;49.524;10.964;2024-01-16T00:17:58;-0.30;99.90
18335;DHT22;9293;49.524;10.964;2024-01-16T00:20:26;-0.30;99.90
18335;DHT22;9293;49.524;10.964;2024-01-16T00:22:55;-0.30;99.90
18335;DHT22;9293;49.524;10.964;2024-01-16T00:25:24;-0.30;99.90
18335;DHT22;9293;49.524;10.964;2024-01-16T00:27:52;-0.30;99.90
18335;DHT22;9293;49.524;10.964;2024-01-16T00:30:20;-0.20;99.90
18335;DHT22;9293;49.524;10.964;2024-01-16T00:32:48;-0.30;99.90
18335;DHT22;9293;49.524;10.964;2024-01-16T00:35:17;-0.30;99.90
18335;DHT22;9293;49.524;10.964;2024-01-16T00:37:46;-0.30;99.90
18335;DHT22;9293;49.524;10.964;2024-01-16T00:40:14;-0.30;99.90
18335;DHT22;9293;49.524;10.964;2024-01-16T00:42:43;-0.30;99.90
18335;DHT22;9293;49.524;10.964;2024-01-16T00:45:11;-0.30;99.90
18335;DHT22;9293;49.524;10.964;2024-01-16T00:47:39;-0.30;99.90
18335;DHT22;9293;49.524;10.964;2024-01-16T00:50:08;-0.30;99.90
18335;DHT22;9293;49.524;10.964;2024-01-16T00:52:37;-0.30;99.90
18335;DHT22;9293;49.524;10.964;2024-01-16T00:55:05;-0.30;99.90
18335;DHT22;9293;49.524;10.964;2024-01-16T00:57:33;-0.30;99.90
18335;DHT22;9293;49.524;10.964;2024-01-16T01:00:02;-0.30;99.90
18335;DHT22;9293;49.524;10.964;2024-01-16T01:02:31;-0.40;99.90
18335;DHT22;9293;49.524;10.964;2024-01-16T01:05:00;-0.40;99.90
18335;DHT22;9293;49.524;10.964;2024-01-16T01:07:28;-0.40;99.90
18335;DHT22;9293;49.524;10.964;2024-01-16T01:09:56;-0.40;99.90
18335;DHT22;9293;49.524;10.964;2024-01-16T01:12:27;-0.40;99.90
18335;DHT22;9293;49.524;10.964;2024-01-16T01:14:55;-0.40;99.90
18335;DHT22;9293;49.524;10.964;2024-01-16T01:17:23;-0.40;99.90
18335;DHT22;9293;49.524;10.964;2024-01-16T01:19:53;-0.40;99.90
18335;DHT22;9293;49.524;10.964;2024-01-16T01:22:21;-0.40;99.90
18335;DHT22;9293;49.524;10.964;2024-01-16T01:24:49;-0.40;99.90
18335;DHT22;9293;49.524;10.964;2024-01-16T01:27:18;-0.50;99.90
18335;DHT22;9293;49.524;10.964;2024-01-16T01:29:46;-0.50;99.90
18335;DHT22;9293;49.524;10.964;2024-01-16T01:32:15;-0.50;99.90
18335;DHT22;9293;49.524;10.964;2024-01-16T01:34:43;-0.50;99.90
18335;DHT22;9293;49.524;10.964;2024-01-16T01:37:11;-0.50;99.90
18335;DHT22;9293;49.524;10.964;2024-01-16T01:39:40;-0.40;99.90
18335;DHT22;9293;49.524;10.964;2024-01-16T01:42:08;-0.40;99.90
18335;DHT22;9293;49.524;10.964;2024-01-16T01:44:36;-0.50;99.90
18335;DHT22;9293;49.524;10.964;2024-01-16T01:47:05;-0.50;99.90
18335;DHT22;9293;49.524;10.964;2024-01-16T01:49:33;-0.40;99.90
18335;DHT22;9293;49.524;10.964;2024-01-16T01:52:03;-0.40;99.90
18335;DHT22;9293;49.524;10.964;2024-01-16T01:54:35;-0.40;99.90
18335;DHT22;9293;49.524;10.964;2024-01-16T01:57:07;-0.40;99.90
18335;DHT22;9293;49.524;10.964;2024-01-16T01:59:36;-0.40;99.90
18335;DHT22;9293;49.524;10.964;2024-01-16T02:02:04;-0.40;99.90
18335;DHT22;9293;49.524;10.964;2024-01-16T02:04:34;-0.40;99.90
18335;DHT22;9293;49.524;10.964;2024-01-16T02:07:03;-0.40;99.90
18335;DHT22;9293;49.524;10.964;2024-01-16T02:09:32;-0.40;99.90
18335;DHT22;9293;49.524;10.964;2024-01-16T02:12:00;-0.40;99.90
18335;DHT22;9293;49.524;10.964;2024-01-16T02:14:29;-0.40;99.90
18335;DHT22;9293;49.524;10.964;2024-01-16T02:16:57;-0.40;99.90
18335;DHT22;9293;49.524;10.964;2024-01-16T02:19:25;-0.40;99.90
18335;DHT22;9293;49.524;10.964;2024-01-16T02:22:01;-0.40;99.90
18335;DHT22;9293;49.524;10.964;2024-01-16T02:24:31;-0.40;99.90
18335;DHT22;9293;49.524;10.964;2024-01-16T02:27:00;-0.40;99.90
18335;DHT22;9293;49.524;10.964;2024-01-16T02:29:28;-0.40;99.90
18335;DHT22;9293;49.524;10.964;2024-01-16T02:31:57;-0.40;99.90
18335;DHT22;9293;49.524;10.964;2024-01-16T02:34:25;-0.40;99.90
18335;DHT22;9293;49.524;10.964;2024-01-16T02:36:53;-0.40;99.90
18335;DHT22;9293;49.524;10.964;2024-01-16T02:39:22;-0.40;99.90
18335;DHT22;9293;49.524;10.964;2024-01-16T02:41:50;-0.40;99.90
18335;DHT22;9293;49.524;10.964;2024-01-16T02:44:18;-0.40;99.90
18335;DHT22;9293;49.524;10.964;2024-01-16T02:46:47;-0.40;99.90
18335;DHT22;9293;49.524;10.964;2024-01-16T02:49:15;-0.40;99.90
18335;DHT22;9293;49.524;10.964;2024-01-16T02:51:43;-0.40;99.90
18335;DHT22;9293;49.524;10.964;2024-01-16T02:54:12;-0.40;99.90
18335;DHT22;9293;49.524;10.964;2024-01-16T02:56:40;-0.40;99.90
18335;DHT22;9293;49.524;10.964;2024-01-16T02:59:09;-0.40;99.90
18335;DHT22;9293;49.524;10.964;2024-01-16T03:01:37;-0.40;99.90
18335;DHT22;9293;49.524;10.964;2024-01-16T03:04:06;-0.40;99.90
18335;DHT22;9293;49.524;10.964;2024-01-16T03:06:34;-0.40;99.90
18335;DHT22;9293;49.524;10.964;2024-01-16T03:09:03;-0.40;99.90
18335;DHT22;9293;49.524;10.964;2024-01-16T03:11:31;-0.40;99.90
18335;DHT22;9293;49.524;10.964;2024-01-16T03:14:01;-0.40;99.90
18335;DHT22;9293;49.524;10.964;2024-01-16T03:16:30;-0.50;99.90
18335;DHT22;9293;49.524;10.964;2024-01-16T03:18:59;-0.50;99.90
18335;DHT22;9293;49.524;10.964;2024-01-16T03:21:27;-0.50;99.90
18335;DHT22;9293;49.524;10.964;2024-01-16T03:23:55;-0.40;99.90
18335;DHT22;9293;49.524;10.964;2024-01-16T03:26:24;-0.50;99.90
18335;DHT22;9293;49.524;10.964;2024-01-16T03:28:55;-0.50;99.90
18335;DHT22;9293;49.524;10.964;2024-01-16T03:31:27;-0.40;99.90
18335;DHT22;9293;49.524;10.964;2024-01-16T03:33:55;-0.40;99.90
18335;DHT22;9293;49.524;10.964;2024-01-16T03:36:24;-0.40;99.90
18335;DHT22;9293;49.524;10.964;2024-01-16T03:38:52;-0.40;99.90
18335;DHT22;9293;49.524;10.964;2024-01-16T03:41:20;-0.50;99.90
18335;DHT22;9293;49.524;10.964;2024-01-16T03:43:48;-0.50;99.90
18335;DHT22;9293;49.524;10.964;2024-01-16T03:46:17;-0.50;99.90
18335;DHT22;9293;49.524;10.964;2024-01-16T03:48:45;-0.50;99.90
18335;DHT22;9293;49.524;10.964;2024-01-16T03:51:13;-0.50;99.90
18335;DHT22;9293;49.524;10.964;2024-01-16T03:53:43;-0.50;99.90
18335;DHT22;9293;49.524;10.964;2024-01-16T03:56:11;-0.50;99.90
18335;DHT22;9293;49.524;10.964;2024-01-16T03:58:40;-0.50;99.90
18335;DHT22;9293;49.524;10.964;2024-01-16T04:01:09;-0.50;99.90
18335;DHT22;9293;49.524;10.964;2024-01-16T04:03:38;-0.50;99.90
18335;DHT22;9293;49.524;10.964;2024-01-16T04:06:17;-0.60;99.90
18335;DHT22;9293;49.524;10.964;2024-01-16T04:08:46;-0.60;99.90
18335;DHT22;9293;49.524;10.964;2024-01-16T04:11:14;-0.60;99.90
18335;DHT22;9293;49.524;10.964;2024-01-16T04:13:43;-0.60;99.90
18335;DHT22;9293;49.524;10.964;2024-01-16T04:16:12;-0.60;99.90
18335;DHT22;9293;49.524;10.964;2024-01-16T04:18:42;-0.60;99.90
18335;DHT22;9293;49.524;10.964;2024-01-16T04:21:11;-0.60;99.90
18335;DHT22;9293;49.524;10.964;2024-01-16T04:23:42;-0.60;99.90
18335;DHT22;9293;49.524;10.964;2024-01-16T04:26:11;-0.60;99.90
18335;DHT22;9293;49.524;10.964;2024-01-16T04:28:40;-0.60;99.90
18335;DHT22;9293;49.524;10.964;2024-01-16T04:31:08;-0.70;99.90
18335;DHT22;9293;49.524;10.964;2024-01-16T04:33:36;-0.70;99.90
18335;DHT22;9293;49.524;10.964;2024-01-16T04:36:05;-0.80;99.90
18335;DHT22;9293;49.524;10.964;2024-01-16T04:38:34;-0.80;99.90
18335;DHT22;9293;49.524;10.964;2024-01-16T04:41:03;-0.80;99.90
18335;DHT22;9293;49.524;10.964;2024-01-16T04:43:31;-0.90;99.90
18335;DHT22;9293;49.524;10.964;2024-01-16T04:46:08;-0.90;99.90
18335;DHT22;9293;49.524;10.964;2024-01-16T04:48:40;-0.90;99.90
18335;DHT22;9293;49.524;10.964;2024-01-16T04:51:10;-0.90;99.90
18335;DHT22;9293;49.524;10.964;2024-01-16T04:53:42;-0.80;99.90
18335;DHT22;9293;49.524;10.964;2024-01-16T04:56:10;-0.80;99.90
18335;DHT22;9293;49.524;10.964;2024-01-16T04:58:39;-0.80;99.90
18335;DHT22;9293;49.524;10.964;2024-01-16T05:01:07;-0.80;99.90
18335;DHT22;9293;49.524;10.964;2024-01-16T05:03:36;-0.70;99.90
18335;DHT22;9293;49.524;10.964;2024-01-16T05:06:04;-0.70;99.90
18335;DHT22;9293;49.524;10.964;2024-01-16T05:08:33;-0.80;99.90
18335;DHT22;9293;49.524;10.964;2024-01-16T05:11:01;-0.80;99.90
18335;DHT22;9293;49.524;10.964;2024-01-16T05:13:29;-0.80;99.90
18335;DHT22;9293;49.524;10.964;2024-01-16T05:15:58;-0.90;99.90
18335;DHT22;9293;49.524;10.964;2024-01-16T05:18:26;-0.90;99.90
18335;DHT22;9293;49.524;10.964;2024-01-16T05:20:54;-0.90;99.90
18335;DHT22;9293;49.524;10.964;2024-01-16T05:23:26;-0.90;99.90
18335;DHT22;9293;49.524;10.964;2024-01-16T05:25:55;-0.90;99.90
18335;DHT22;9293;49.524;10.964;2024-01-16T05:28:24;-1.00;99.90
18335;DHT22;9293;49.524;10.964;2024-01-16T05:30:52;-1.00;99.90
18335;DHT22;9293;49.524;10.964;2024-01-16T05:33:23;-1.00;99.90
18335;DHT22;9293;49.524;10.964;2024-01-16T05:35:51;-1.00;99.90
18335;DHT22;9293;49.524;10.964;2024-01-16T05:38:20;-0.90;99.90
18335;DHT22;9293;49.524;10.964;2024-01-16T05:40:48;-0.90;99.90
18335;DHT22;9293;49.524;10.964;2024-01-16T05:43:16;-0.90;99.90
18335;DHT22;9293;49.524;10.964;2024-01-16T05:45:45;-1.00;99.90
18335;DHT22;9293;49.524;10.964;2024-01-16T05:48:13;-1.00;99.90
18335;DHT22;9293;49.524;10.964;2024-01-16T05:50:41;-1.00;99.90
18335;DHT22;9293;49.524;10.964;2024-01-16T05:53:10;-1.00;99.90
18335;DHT22;9293;49.524;10.964;2024-01-16T05:55:44;-1.00;99.90
18335;DHT22;9293;49.524;10.964;2024-01-16T05:58:13;-1.00;99.90
18335;DHT22;9293;49.524;10.964;2024-01-16T06:00:41;-1.10;99.90
18335;DHT22;9293;49.524;10.964;2024-01-16T06:03:09;-1.10;99.90
18335;DHT22;9293;49.524;10.964;2024-01-16T06:05:37;-1.10;99.90
18335;DHT22;9293;49.524;10.964;2024-01-16T06:08:06;-1.10;99.90
18335;DHT22;9293;49.524;10.964;2024-01-16T06:10:34;-1.10;99.90
18335;DHT22;9293;49.524;10.964;2024-01-16T06:13:05;-1.00;99.90
18335;DHT22;9293;49.524;10.964;2024-01-16T06:15:36;-1.00;99.90
18335;DHT22;9293;49.524;10.964;2024-01-16T06:18:06;-1.00;99.90
18335;DHT22;9293;49.524;10.964;2024-01-16T06:20:34;-0.90;99.90
18335;DHT22;9293;49.524;10.964;2024-01-16T06:23:02;-0.90;99.90
18335;DHT22;9293;49.524;10.964;2024-01-16T06:25:31;-0.90;99.90
18335;DHT22;9293;49.524;10.964;2024-01-16T06:27:59;-0.80;99.90
18335;DHT22;9293;49.524;10.964;2024-01-16T06:30:30;-0.80;99.90
18335;DHT22;9293;49.524;10.964;2024-01-16T06:32:58;-0.80;99.90
18335;DHT22;9293;49.524;10.964;2024-01-16T06:35:27;-0.80;99.90
18335;DHT22;9293;49.524;10.964;2024-01-16T06:37:56;-0.80;99.90
18335;DHT22;9293;49.524;10.964;2024-01-16T06:40:24;-0.80;99.90
18335;DHT22;9293;49.524;10.964;2024-01-16T06:42:52;-0.80;99.90
18335;DHT22;9293;49.524;10.964;2024-01-16T06:45:20;-0.80;99.90
18335;DHT22;9293;49.524;10.964;2024-01-16T06:47:49;-0.80;99.90
18335;DHT22;9293;49.524;10.964;2024-01-16T06:50:17;-0.80;99.90
18335;DHT22;9293;49.524;10.964;2024-01-16T06:52:46;-0.80;99.90
18335;DHT22;9293;49.524;10.964;2024-01-16T06:55:14;-0.90;99.90
18335;DHT22;9293;49.524;10.964;2024-01-16T06:57:42;-0.90;99.90
18335;DHT22;9293;49.524;10.964;2024-01-16T07:00:11;-0.90;99.90
18335;DHT22;9293;49.524;10.964;2024-01-16T07:02:40;-0.90;99.90
18335;DHT22;9293;49.524;10.964;2024-01-16T07:05:12;-0.90;99.90
18335;DHT22;9293;49.524;10.964;2024-01-16T07:07:40;-0.90;99.90
18335;DHT22;9293;49.524;10.964;2024-01-16T07:10:09;-0.90;99.90
18335;DHT22;9293;49.524;10.964;2024-01-16T07:12:41;-0.90;99.90
18335;DHT22;9293;49.524;10.964;2024-01-16T07:15:09;-0.90;99.90
18335;DHT22;9293;49.524;10.964;2024-01-16T07:17:37;-0.90;99.90
18335;DHT22;9293;49.524;10.964;2024-01-16T07:20:06;-0.90;99.90
18335;DHT22;9293;49.524;10.964;2024-01-16T07:22:37;-0.90;99.90
18335;DHT22;9293;49.524;10.964;2024-01-16T07:25:07;-0.90;99.90
18335;DHT22;9293;49.524;10.964;2024-01-16T07:27:36;-0.90;99.90
18335;DHT22;9293;49.524;10.964;2024-01-16T07:30:05;-0.90;99.90
18335;DHT22;9293;49.524;10.964;2024-01-16T07:32:34;-0.90;99.90
18335;DHT22;9293;49.524;10.964;2024-01-16T07:35:03;-0.90;99.90
18335;DHT22;9293;49.524;10.964;2024-01-16T07:37:31;-0.90;99.90
18335;DHT22;9293;49.524;10.964;2024-01-16T07:40:00;-0.90;99.90
18335;DHT22;9293;49.524;10.964;2024-01-16T07:42:32;-0.80;99.90
18335;DHT22;9293;49.524;10.964;2024-01-16T07:45:05;-0.80;99.90
18335;DHT22;9293;49.524;10.964;2024-01-16T07:47:34;-0.80;99.90
18335;DHT22;9293;49.524;10.964;2024-01-16T07:50:04;-0.80;99.90
18335;DHT22;9293;49.524;10.964;2024-01-16T07:52:34;-0.80;99.90
18335;DHT22;9293;49.524;10.964;2024-01-16T07:55:03;-0.80;99.90
18335;DHT22;9293;49.524;10.964;2024-01-16T07:57:31;-0.80;99.90
18335;DHT22;9293;49.524;10.964;2024-01-16T07:59:59;-0.80;99.90
18335;DHT22;9293;49.524;10.964;2024-01-16T08:02:33;-0.80;99.90
18335;DHT22;9293;49.524;10.964;2024-01-16T08:05:03;-0.80;99.90
18335;DHT22;9293;49.524;10.964;2024-01-16T08:07:31;-0.80;99.90
18335;DHT22;9293;49.524;10.964;2024-01-16T08:10:00;-0.70;99.90
18335;DHT22;9293;49.524;10.964;2024-01-16T08:12:28;-0.70;99.90
18335;DHT22;9293;49.524;10.964;2024-01-16T08:14:57;-0.70;99.90
18335;DHT22;9293;49.524;10.964;2024-01-16T08:17:25;-0.70;99.90
18335;DHT22;9293;49.524;10.964;2024-01-16T08:19:53;-0.70;99.90
18335;DHT22;9293;49.524;10.964;2024-01-16T08:22:22;-0.70;99.90
18335;DHT22;9293;49.524;10.964;2024-01-16T08:24:50;-0.70;99.90
18335;DHT22;9293;49.524;10.964;2024-01-16T08:27:19;-0.80;99.90
18335;DHT22;9293;49.524;10.964;2024-01-16T08:29:47;-0.90;99.90
18335;DHT22;9293;49.524;10.964;2024-01-16T08:32:18;-0.90;99.90
18335;DHT22;9293;49.524;10.964;2024-01-16T08:34:46;-0.80;99.90
18335;DHT22;9293;49.524;10.964;2024-01-16T08:37:15;-0.70;99.90
18335;DHT22;9293;49.524;10.964;2024-01-16T08:39:43;-0.60;99.90
18335;DHT22;9293;49.524;10.964;2024-01-16T08:42:11;-0.50;99.90
18335;DHT22;9293;49.524;10.964;2024-01-16T08:44:42;-0.40;99.90
18335;DHT22;9293;49.524;10.964;2024-01-16T08:47:10;-0.20;99.90
18335;DHT22;9293;49.524;10.964;2024-01-16T08:49:39;-0.20;99.90
18335;DHT22;9293;49.524;10.964;2024-01-16T08:52:08;-0.20;99.90
18335;DHT22;9293;49.524;10.964;2024-01-16T08:54:36;-0.10;99.90
18335;DHT22;9293;49.524;10.964;2024-01-16T08:57:05;0.00;99.90
18335;DHT22;9293;49.524;10.964;2024-01-16T08:59:33;0.00;99.90
18335;DHT22;9293;49.524;10.964;2024-01-16T09:02:01;0.00;99.90
18335;DHT22;9293;49.524;10.964;2024-01-16T09:04:31;0.10;99.90
18335;DHT22;9293;49.524;10.964;2024-01-16T09:07:02;0.10;99.90
18335;DHT22;9293;49.524;10.964;2024-01-16T09:09:36;0.20;99.90
18335;DHT22;9293;49.524;10.964;2024-01-16T09:12:05;0.30;99.90
18335;DHT22;9293;49.524;10.964;2024-01-16T09:14:33;0.40;99.90
18335;DHT22;9293;49.524;10.964;2024-01-16T09:17:02;0.40;99.90
18335;DHT22;9293;49.524;10.964;2024-01-16T09:19:31;0.50;99.90
18335;DHT22;9293;49.524;10.964;2024-01-16T09:21:59;0.60;99.90
18335;DHT22;9293;49.524;10.964;2024-01-16T09:24:28;0.70;99.90
18335;DHT22;9293;49.524;10.964;2024-01-16T09:26:57;0.70;99.90
18335;DHT22;9293;49.524;10.964;2024-01-16T09:29:26;0.70;99.90
18335;DHT22;9293;49.524;10.964;2024-01-16T09:31:56;0.60;99.90
18335;DHT22;9293;49.524;10.964;2024-01-16T09:34:24;0.60;99.90
18335;DHT22;9293;49.524;10.964;2024-01-16T09:36:52;0.60;99.90
18335;DHT22;9293;49.524;10.964;2024-01-16T09:39:21;0.50;99.90
18335;DHT22;9293;49.524;10.964;2024-01-16T09:41:49;0.50;99.90
18335;DHT22;9293;49.524;10.964;2024-01-16T09:44:17;0.50;99.90
18335;DHT22;9293;49.524;10.964;2024-01-16T09:46:47;0.50;99.90
18335;DHT22;9293;49.524;10.964;2024-01-16T09:49:17;0.50;99.90
18335;DHT22;9293;49.524;10.964;2024-01-16T09:51:46;0.70;99.90
18335;DHT22;9293;49.524;10.964;2024-01-16T09:54:14;0.60;99.90
18335;DHT22;9293;49.524;10.964;2024-01-16T09:56:43;0.60;99.90
18335;DHT22;9293;49.524;10.964;2024-01-16T09:59:17;0.70;99.90
18335;DHT22;9293;49.524;10.964;2024-01-16T10:01:49;0.90;99.90
18335;DHT22;9293;49.524;10.964;2024-01-16T10:04:19;0.80;99.90
18335;DHT22;9293;49.524;10.964;2024-01-16T10:06:48;0.90;99.90
18335;DHT22;9293;49.524;10.964;2024-01-16T10:09:17;1.00;99.90
18335;DHT22;9293;49.524;10.964;2024-01-16T10:11:46;1.10;99.90
18335;DHT22;9293;49.524;10.964;2024-01-16T10:14:16;1.10;99.90
18335;DHT22;9293;49.524;10.964;2024-01-16T10:17:02;1.00;99.90
18335;DHT22;9293;49.524;10.964;2024-01-16T10:19:33;1.00;99.90
18335;DHT22;9293;49.524;10.964;2024-01-16T10:22:22;1.00;99.90
18335;DHT22;9293;49.524;10.964;2024-01-16T10:27:35;1.20;99.90
18335;DHT22;9293;49.524;10.964;2024-01-16T10:30:04;1.30;99.90
18335;DHT22;9293;49.524;10.964;2024-01-16T10:32:37;1.40;99.90
18335;DHT22;9293;49.524;10.964;2024-01-16T10:35:11;1.50;99.90
18335;DHT22;9293;49.524;10.964;2024-01-16T10:37:50;1.50;99.90
18335;DHT22;9293;49.524;10.964;2024-01-16T10:40:20;1.40;99.90
18335;DHT22;9293;49.524;10.964;2024-01-16T10:42:58;1.40;99.90
18335;DHT22;9293;49.524;10.964;2024-01-16T10:45:27;1.40;99.90
18335;DHT22;9293;49.524;10.964;2024-01-16T10:48:05;1.60;99.90
18335;DHT22;9293;49.524;10.964;2024-01-16T10:50:36;1.70;99.90
18335;DHT22;9293;49.524;10.964;2024-01-16T10:53:07;1.80;99.90
18335;DHT22;9293;49.524;10.964;2024-01-16T10:55:49;1.90;99.90
18335;DHT22;9293;49.524;10.964;2024-01-16T10:58:23;1.80;99.90
18335;DHT22;9293;49.524;10.964;2024-01-16T11:00:53;1.90;99.90
18335;DHT22;9293;49.524;10.964;2024-01-16T11:03:48;1.90;99.90
18335;DHT22;9293;49.524;10.964;2024-01-16T11:06:18;1.80;99.90
18335;DHT22;9293;49.524;10.964;2024-01-16T11:08:47;1.90;99.90
18335;DHT22;9293;49.524;10.964;2024-01-16T11:11:17;1.90;99.90
18335;DHT22;9293;49.524;10.964;2024-01-16T11:13:46;1.80;99.90
18335;DHT22;9293;49.524;10.964;2024-01-16T11:16:14;1.90;99.90
18335;DHT22;9293;49.524;10.964;2024-01-16T11:18:43;1.90;99.90
18335;DHT22;9293;49.524;10.964;2024-01-16T11:21:15;1.80;99.90
18335;DHT22;9293;49.524;10.964;2024-01-16T11:23:46;1.70;99.90
18335;DHT22;9293;49.524;10.964;2024-01-16T11:28:57;1.70;99.90
18335;DHT22;9293;49.524;10.964;2024-01-16T11:31:36;1.70;99.90
18335;DHT22;9293;49.524;10.964;2024-01-16T11:34:07;1.70;99.90
18335;DHT22;9293;49.524;10.964;2024-01-16T11:36:52;1.80;99.90
18335;DHT22;9293;49.524;10.964;2024-01-16T11:39:25;1.90;99.90
18335;DHT22;9293;49.524;10.964;2024-01-16T11:41:55;1.90;99.90
18335;DHT22;9293;49.524;10.964;2024-01-16T11:47:05;1.90;99.90
18335;DHT22;9293;49.524;10.964;2024-01-16T11:49:37;2.00;99.90
18335;DHT22;9293;49.524;10.964;2024-01-16T11:52:06;2.00;99.90
18335;DHT22;9293;49.524;10.964;2024-01-16T11:54:35;2.10;99.90
18335;DHT22;9293;49.524;10.964;2024-01-16T11:57:12;2.10;99.90
18335;DHT22;9293;49.524;10.964;2024-01-16T12:02:34;2.10;99.90
18335;DHT22;9293;49.524;10.964;2024-01-16T12:05:05;2.10;99.90
18335;DHT22;9293;49.524;10.964;2024-01-16T12:07:51;2.20;99.90
18335;DHT22;9293;49.524;10.964;2024-01-16T12:10:24;2.10;99.90
18335;DHT22;9293;49.524;10.964;2024-01-16T12:13:00;2.10;99.90
18335;DHT22;9293;49.524;10.964;2024-01-16T12:15:31;2.20;99.90
18335;DHT22;9293;49.524;10.964;2024-01-16T12:18:01;2.00;99.90
18335;DHT22;9293;49.524;10.964;2024-01-16T12:20:31;2.00;99.90
18335;DHT22;9293;49.524;10.964;2024-01-16T12:23:04;2.00;99.90
18335;DHT22;9293;49.524;10.964;2024-01-16T12:25:36;2.00;99.90
18335;DHT22;9293;49.524;10.964;2024-01-16T12:28:25;2.00;99.90
18335;DHT22;9293;49.524;10.964;2024-01-16T12:30:59;2.00;99.90
18335;DHT22;9293;49.524;10.964;2024-01-16T12:33:28;2.30;99.90
18335;DHT22;9293;49.524;10.964;2024-01-16T12:36:02;2.40;99.90
18335;DHT22;9293;49.524;10.964;2024-01-16T12:38:32;2.50;99.90
18335;DHT22;9293;49.524;10.964;2024-01-16T12:41:01;2.60;99.90
18335;DHT22;9293;49.524;10.964;2024-01-16T12:43:31;2.60;99.90
18335;DHT22;9293;49.524;10.964;2024-01-16T12:46:00;2.70;99.90
18335;DHT22;9293;49.524;10.964;2024-01-16T12:48:29;2.80;99.90
18335;DHT22;9293;49.524;10.964;2024-01-16T12:51:01;2.80;99.90
18335;DHT22;9293;49.524;10.964;2024-01-16T12:53:32;2.60;99.90
18335;DHT22;9293;49.524;10.964;2024-01-16T12:56:02;2.60;99.90
18335;DHT22;9293;49.524;10.964;2024-01-16T12:58:38;2.60;99.90
18335;DHT22;9293;49.524;10.964;2024-01-16T13:01:22;2.40;99.90
18335;DHT22;9293;49.524;10.964;2024-01-16T13:04:05;2.20;99.90
18335;DHT22;9293;49.524;10.964;2024-01-16T13:06:35;2.20;99.90
18335;DHT22;9293;49.524;10.964;2024-01-16T13:09:08;2.20;99.90
18335;DHT22;9293;49.524;10.964;2024-01-16T13:11:54;2.00;99.90
18335;DHT22;9293;49.524;10.964;2024-01-16T13:14:23;2.00;99.90
18335;DHT22;9293;49.524;10.964;2024-01-16T13:16:56;2.00;99.90
18335;DHT22;9293;49.524;10.964;2024-01-16T13:19:27;1.80;99.90
18335;DHT22;9293;49.524;10.964;2024-01-16T13:21:58;1.90;99.90
18335;DHT22;9293;49.524;10.964;2024-01-16T13:24:26;2.00;99.90
18335;DHT22;9293;49.524;10.964;2024-01-16T13:26:54;2.20;99.90
18335;DHT22;9293;49.524;10.964;2024-01-16T13:29:22;2.40;99.90
18335;DHT22;9293;49.524;10.964;2024-01-16T13:31:51;2.20;99.90
18335;DHT22;9293;49.524;10.964;2024-01-16T13:34:23;2.10;99.90
18335;DHT22;9293;49.524;10.964;2024-01-16T13:36:54;2.20;99.90
18335;DHT22;9293;49.524;10.964;2024-01-16T13:39:41;2.20;99.90
18335;DHT22;9293;49.524;10.964;2024-01-16T13:42:09;2.00;99.90
18335;DHT22;9293;49.524;10.964;2024-01-16T13:44:38;2.00;99.90
18335;DHT22;9293;49.524;10.964;2024-01-16T13:47:06;2.20;99.90
18335;DHT22;9293;49.524;10.964;2024-01-16T13:49:40;2.40;99.90
18335;DHT22;9293;49.524;10.964;2024-01-16T13:52:09;2.70;99.90
18335;DHT22;9293;49.524;10.964;2024-01-16T13:54:37;2.80;99.90
18335;DHT22;9293;49.524;10.964;2024-01-16T13:57:07;2.70;99.90
18335;DHT22;9293;49.524;10.964;2024-01-16T13:59:39;2.70;99.90
18335;DHT22;9293;49.524;10.964;2024-01-16T14:02:07;2.70;99.90
18335;DHT22;9293;49.524;10.964;2024-01-16T14:04:36;2.50;99.90
18335;DHT22;9293;49.524;10.964;2024-01-16T14:07:05;2.60;99.90
18335;DHT22;9293;49.524;10.964;2024-01-16T14:09:41;2.60;99.90
18335;DHT22;9293;49.524;10.964;2024-01-16T14:12:12;2.60;99.90
18335;DHT22;9293;49.524;10.964;2024-01-16T14:14:41;2.50;99.90
18335;DHT22;9293;49.524;10.964;2024-01-16T14:17:11;2.40;99.90
18335;DHT22;9293;49.524;10.964;2024-01-16T14:19:39;2.40;99.90
18335;DHT22;9293;49.524;10.964;2024-01-16T14:22:08;2.40;99.90
18335;DHT22;9293;49.524;10.964;2024-01-16T14:24:36;2.40;99.90
18335;DHT22;9293;49.524;10.964;2024-01-16T14:27:05;2.40;99.90
18335;DHT22;9293;49.524;10.964;2024-01-16T14:29:37;2.30;99.90
18335;DHT22;9293;49.524;10.964;2024-01-16T14:32:05;2.30;99.90
18335;DHT22;9293;49.524;10.964;2024-01-16T14:34:33;2.20;99.90
18335;DHT22;9293;49.524;10.964;2024-01-16T14:37:02;2.10;99.90
18335;DHT22;9293;49.524;10.964;2024-01-16T14:39:30;2.10;99.90
18335;DHT22;9293;49.524;10.964;2024-01-16T14:41:59;2.00;99.90
18335;DHT22;9293;49.524;10.964;2024-01-16T14:44:27;1.90;99.90
18335;DHT22;9293;49.524;10.964;2024-01-16T14:46:56;1.80;99.90
18335;DHT22;9293;49.524;10.964;2024-01-16T14:49:24;1.70;99.90
18335;DHT22;9293;49.524;10.964;2024-01-16T14:51:52;1.60;99.90
18335;DHT22;9293;49.524;10.964;2024-01-16T14:54:20;1.50;99.90
18335;DHT22;9293;49.524;10.964;2024-01-16T14:56:49;1.50;99.90
18335;DHT22;9293;49.524;10.964;2024-01-16T14:59:17;1.60;99.90
18335;DHT22;9293;49.524;10.964;2024-01-16T15:01:46;1.60;99.90
18335;DHT22;9293;49.524;10.964;2024-01-16T15:04:14;1.60;99.90
18335;DHT22;9293;49.524;10.964;2024-01-16T15:06:42;1.50;99.90
18335;DHT22;9293;49.524;10.964;2024-01-16T15:09:11;1.50;99.90
18335;DHT22;9293;49.524;10.964;2024-01-16T15:11:42;1.40;99.90
18335;DHT22;9293;49.524;10.964;2024-01-16T15:14:15;1.40;99.90
18335;DHT22;9293;49.524;10.964;2024-01-16T15:16:45;1.40;99.90
18335;DHT22;9293;49.524;10.964;2024-01-16T15:19:14;1.40;99.90
18335;DHT22;9293;49.524;10.964;2024-01-16T15:21:42;1.30;99.90
18335;DHT22;9293;49.524;10.964;2024-01-16T15:24:12;1.30;99.90
18335;DHT22;9293;49.524;10.964;2024-01-16T15:26:44;1.20;99.90
18335;DHT22;9293;49.524;10.964;2024-01-16T15:29:15;1.10;99.90
18335;DHT22;9293;49.524;10.964;2024-01-16T15:31:49;1.00;99.90
18335;DHT22;9293;49.524;10.964;2024-01-16T15:34:22;0.90;99.90
18335;DHT22;9293;49.524;10.964;2024-01-16T15:36:51;0.80;99.90
18335;DHT22;9293;49.524;10.964;2024-01-16T15:39:23;0.80;99.90
18335;DHT22;9293;49.524;10.964;2024-01-16T15:41:57;0.70;99.90
18335;DHT22;9293;49.524;10.964;2024-01-16T15:44:37;0.60;99.90
18335;DHT22;9293;49.524;10.964;2024-01-16T15:47:06;0.70;99.90
18335;DHT22;9293;49.524;10.964;2024-01-16T15:49:39;0.60;99.90
18335;DHT22;9293;49.524;10.964;2024-01-16T15:52:12;0.60;99.90
18335;DHT22;9293;49.524;10.964;2024-01-16T15:54:40;0.60;99.90
18335;DHT22;9293;49.524;10.964;2024-01-16T15:57:09;0.50;99.90
18335;DHT22;9293;49.524;10.964;2024-01-16T15:59:38;0.50;99.90
18335;DHT22;9293;49.524;10.964;2024-01-16T16:02:08;0.40;99.90
18335;DHT22;9293;49.524;10.964;2024-01-16T16:04:39;0.40;99.90